Woodstock, Canada
Current Conditions -  °F | °C
As of 12:09 PM on Thursday 27 Nov 2014 (Local Time) from KHUL Reporting Station
Unknown Precip Unknown Precip  
Wind Chill: -10°   Ceiling: 4100
Heat Index: -3°   Visibility: 4mi
Dew Point: -6°   Wind: 17mph
Humidity: 78%   Direction: 360°N
Pressure: 29.78"   Gusts: 29mph
Location:  46.15°N, 67.58°W
Report Text: KHUL 271609Z AUTO 36015G25KT 4SM UP FEW016 BKN041 OVC055 M03/M06 A2978 RMK AO2 UPB08SNE08 P0000 T10281061 $
Loading
Personal Weather Stations






























Interactive Weather Map New forecast layout! Learn more

10-Day Weather Forecast

Advertisements
Track Severe Weather on mobile